sensor_id;sensor_type;location;lat;lon;timestamp;pressure;altitude;pressure_sealevel;temperature;humidity
12868;BME280;33517;49.866;8.320;2023-03-05T00:02:57;100887.19;;;5.88;84.02
12868;BME280;33517;49.866;8.320;2023-03-05T00:06:02;100884.38;;;5.80;84.17
12868;BME280;33517;49.866;8.320;2023-03-05T00:09:10;100884.25;;;5.81;84.50
12868;BME280;33517;49.866;8.320;2023-03-05T00:12:17;100880.47;;;5.85;84.26
12868;BME280;33517;49.866;8.320;2023-03-05T00:15:23;100882.91;;;5.98;83.10
12868;BME280;33517;49.866;8.320;2023-03-05T00:18:27;100886.66;;;6.05;82.04
12868;BME280;33517;49.866;8.320;2023-03-05T00:21:25;100883.97;;;6.06;82.04
12868;BME280;33517;49.866;8.320;2023-03-05T00:24:31;100887.00;;;6.11;81.13
12868;BME280;33517;49.866;8.320;2023-03-05T00:27:32;100883.81;;;6.08;81.58
12868;BME280;33517;49.866;8.320;2023-03-05T00:30:31;100883.88;;;5.97;81.92
12868;BME280;33517;49.866;8.320;2023-03-05T00:33:28;100878.72;;;6.06;81.70
12868;BME280;33517;49.866;8.320;2023-03-05T00:36:22;100872.81;;;6.04;81.38
12868;BME280;33517;49.866;8.320;2023-03-05T00:39:21;100875.41;;;6.04;81.49
12868;BME280;33517;49.866;8.320;2023-03-05T00:42:23;100872.19;;;6.12;80.72
12868;BME280;33517;49.866;8.320;2023-03-05T00:45:23;100866.09;;;6.11;81.01
12868;BME280;33517;49.866;8.320;2023-03-05T00:48:21;100871.25;;;6.02;80.41
12868;BME280;33517;49.866;8.320;2023-03-05T00:51:20;100872.03;;;6.13;80.45
12868;BME280;33517;49.866;8.320;2023-03-05T00:54:21;100861.38;;;6.05;80.76
12868;BME280;33517;49.866;8.320;2023-03-05T00:57:13;100865.59;;;5.97;80.94
12868;BME280;33517;49.866;8.320;2023-03-05T01:00:08;100853.47;;;5.96;81.04
12868;BME280;33517;49.866;8.320;2023-03-05T01:03:01;100857.19;;;5.93;80.95
12868;BME280;33517;49.866;8.320;2023-03-05T01:05:53;100843.72;;;5.98;80.82
12868;BME280;33517;49.866;8.320;2023-03-05T01:08:45;100843.66;;;5.88;81.86
12868;BME280;33517;49.866;8.320;2023-03-05T01:11:37;100844.94;;;5.94;81.09
12868;BME280;33517;49.866;8.320;2023-03-05T01:14:29;100846.41;;;6.07;80.27
12868;BME280;33517;49.866;8.320;2023-03-05T01:17:21;100845.91;;;6.13;79.88
12868;BME280;33517;49.866;8.320;2023-03-05T01:20:17;100846.63;;;6.15;79.13
12868;BME280;33517;49.866;8.320;2023-03-05T01:23:09;100848.94;;;5.98;79.75
12868;BME280;33517;49.866;8.320;2023-03-05T01:26:01;100839.69;;;5.94;80.42
12868;BME280;33517;49.866;8.320;2023-03-05T01:28:53;100842.66;;;6.00;79.90
12868;BME280;33517;49.866;8.320;2023-03-05T01:31:45;100837.88;;;6.05;79.47
12868;BME280;33517;49.866;8.320;2023-03-05T01:34:37;100831.72;;;6.06;79.34
12868;BME280;33517;49.866;8.320;2023-03-05T01:37:32;100828.13;;;6.07;79.24
12868;BME280;33517;49.866;8.320;2023-03-05T01:40:29;100825.78;;;6.04;79.62
12868;BME280;33517;49.866;8.320;2023-03-05T01:43:24;100825.03;;;6.13;78.92
12868;BME280;33517;49.866;8.320;2023-03-05T01:46:28;100830.38;;;6.12;78.75
12868;BME280;33517;49.866;8.320;2023-03-05T01:49:23;100820.88;;;6.11;79.15
12868;BME280;33517;49.866;8.320;2023-03-05T01:52:18;100834.91;;;6.10;79.31
12868;BME280;33517;49.866;8.320;2023-03-05T01:55:16;100828.97;;;6.08;78.61
12868;BME280;33517;49.866;8.320;2023-03-05T01:58:10;100815.91;;;6.08;78.56
12868;BME280;33517;49.866;8.320;2023-03-05T02:01:03;100819.59;;;6.05;78.94
12868;BME280;33517;49.866;8.320;2023-03-05T02:03:55;100808.56;;;6.02;78.82
12868;BME280;33517;49.866;8.320;2023-03-05T02:06:47;100808.38;;;5.94;78.79
12868;BME280;33517;49.866;8.320;2023-03-05T02:09:40;100808.50;;;5.92;79.31
12868;BME280;33517;49.866;8.320;2023-03-05T02:12:33;100799.09;;;6.01;78.81
12868;BME280;33517;49.866;8.320;2023-03-05T02:15:25;100797.03;;;6.04;78.59
12868;BME280;33517;49.866;8.320;2023-03-05T02:18:18;100795.94;;;6.07;77.89
12868;BME280;33517;49.866;8.320;2023-03-05T02:21:12;100798.81;;;6.04;78.51
12868;BME280;33517;49.866;8.320;2023-03-05T02:24:05;100792.91;;;6.02;78.43
12868;BME280;33517;49.866;8.320;2023-03-05T02:26:57;100793.72;;;6.02;78.51
12868;BME280;33517;49.866;8.320;2023-03-05T02:29:49;100792.41;;;6.08;78.06
12868;BME280;33517;49.866;8.320;2023-03-05T02:32:42;100791.81;;;6.04;78.64
12868;BME280;33517;49.866;8.320;2023-03-05T02:35:34;100784.69;;;6.06;77.88
12868;BME280;33517;49.866;8.320;2023-03-05T02:38:28;100792.13;;;6.11;78.02
12868;BME280;33517;49.866;8.320;2023-03-05T02:41:20;100780.88;;;6.10;77.88
12868;BME280;33517;49.866;8.320;2023-03-05T02:44:12;100784.19;;;6.12;77.15
12868;BME280;33517;49.866;8.320;2023-03-05T02:47:04;100779.91;;;6.11;77.06
12868;BME280;33517;49.866;8.320;2023-03-05T02:49:56;100777.09;;;6.03;77.46
12868;BME280;33517;49.866;8.320;2023-03-05T02:52:48;100774.75;;;6.00;77.91
12868;BME280;33517;49.866;8.320;2023-03-05T02:55:41;100771.50;;;5.87;78.27
12868;BME280;33517;49.866;8.320;2023-03-05T02:58:33;100762.06;;;5.64;79.54
12868;BME280;33517;49.866;8.320;2023-03-05T03:01:25;100754.75;;;5.79;78.44
12868;BME280;33517;49.866;8.320;2023-03-05T03:04:17;100745.25;;;5.89;78.24
12868;BME280;33517;49.866;8.320;2023-03-05T03:07:10;100742.13;;;5.95;77.88
12868;BME280;33517;49.866;8.320;2023-03-05T03:10:02;100742.19;;;6.04;77.41
12868;BME280;33517;49.866;8.320;2023-03-05T03:12:55;100734.91;;;6.08;76.88
12868;BME280;33517;49.866;8.320;2023-03-05T03:15:47;100739.44;;;6.06;76.60
12868;BME280;33517;49.866;8.320;2023-03-05T03:18:39;100736.00;;;6.05;76.65
12868;BME280;33517;49.866;8.320;2023-03-05T03:21:31;100738.88;;;6.02;76.25
12868;BME280;33517;49.866;8.320;2023-03-05T03:24:23;100737.34;;;6.00;76.52
12868;BME280;33517;49.866;8.320;2023-03-05T03:27:15;100739.72;;;6.03;76.43
12868;BME280;33517;49.866;8.320;2023-03-05T03:30:10;100743.00;;;6.05;76.21
12868;BME280;33517;49.866;8.320;2023-03-05T03:33:02;100736.97;;;6.04;76.09
12868;BME280;33517;49.866;8.320;2023-03-05T03:35:54;100736.69;;;6.07;75.57
12868;BME280;33517;49.866;8.320;2023-03-05T03:38:46;100733.53;;;6.04;75.84
12868;BME280;33517;49.866;8.320;2023-03-05T03:41:40;100730.97;;;5.93;75.94
12868;BME280;33517;49.866;8.320;2023-03-05T03:44:32;100725.09;;;5.80;76.71
12868;BME280;33517;49.866;8.320;2023-03-05T03:47:25;100728.75;;;5.88;75.89
12868;BME280;33517;49.866;8.320;2023-03-05T03:50:17;100726.81;;;5.90;75.50
12868;BME280;33517;49.866;8.320;2023-03-05T03:53:11;100722.59;;;5.89;75.62
12868;BME280;33517;49.866;8.320;2023-03-05T03:56:04;100724.34;;;5.89;75.60
12868;BME280;33517;49.866;8.320;2023-03-05T03:58:56;100721.03;;;5.87;76.03
12868;BME280;33517;49.866;8.320;2023-03-05T04:01:48;100711.34;;;5.78;75.88
12868;BME280;33517;49.866;8.320;2023-03-05T04:04:41;100717.06;;;5.72;75.66
12868;BME280;33517;49.866;8.320;2023-03-05T04:07:33;100710.56;;;5.66;76.41
12868;BME280;33517;49.866;8.320;2023-03-05T04:10:25;100704.13;;;5.70;75.83
12868;BME280;33517;49.866;8.320;2023-03-05T04:13:17;100707.63;;;5.80;75.67
12868;BME280;33517;49.866;8.320;2023-03-05T04:16:09;100711.44;;;5.87;75.22
12868;BME280;33517;49.866;8.320;2023-03-05T04:19:00;100699.06;;;5.89;75.39
12868;BME280;33517;49.866;8.320;2023-03-05T04:21:54;100706.22;;;5.87;74.77
12868;BME280;33517;49.866;8.320;2023-03-05T04:24:45;100704.91;;;5.82;74.92
12868;BME280;33517;49.866;8.320;2023-03-05T04:27:37;100709.94;;;5.74;75.14
12868;BME280;33517;49.866;8.320;2023-03-05T04:30:30;100707.19;;;5.75;75.10
12868;BME280;33517;49.866;8.320;2023-03-05T04:33:23;100711.56;;;5.75;75.13
12868;BME280;33517;49.866;8.320;2023-03-05T04:36:14;100707.94;;;5.66;75.12
12868;BME280;33517;49.866;8.320;2023-03-05T04:39:08;100704.31;;;5.57;75.47
12868;BME280;33517;49.866;8.320;2023-03-05T04:42:00;100696.53;;;5.46;76.34
12868;BME280;33517;49.866;8.320;2023-03-05T04:44:51;100697.09;;;5.50;75.79
12868;BME280;33517;49.866;8.320;2023-03-05T04:47:43;100701.63;;;5.48;76.59
12868;BME280;33517;49.866;8.320;2023-03-05T04:50:35;100700.06;;;5.45;76.80
12868;BME280;33517;49.866;8.320;2023-03-05T04:53:27;100705.91;;;5.49;77.21
12868;BME280;33517;49.866;8.320;2023-03-05T04:56:20;100701.03;;;5.44;77.54
12868;BME280;33517;49.866;8.320;2023-03-05T04:59:12;100695.00;;;5.44;77.86
12868;BME280;33517;49.866;8.320;2023-03-05T05:02:04;100701.41;;;5.40;78.07
12868;BME280;33517;49.866;8.320;2023-03-05T05:04:56;100693.72;;;5.38;78.74
12868;BME280;33517;49.866;8.320;2023-03-05T05:07:48;100697.38;;;5.36;79.66
12868;BME280;33517;49.866;8.320;2023-03-05T05:10:40;100696.81;;;5.32;80.84
12868;BME280;33517;49.866;8.320;2023-03-05T05:13:33;100698.91;;;5.18;82.20
12868;BME280;33517;49.866;8.320;2023-03-05T05:16:25;100696.19;;;5.08;83.50
12868;BME280;33517;49.866;8.320;2023-03-05T05:19:17;100694.88;;;5.14;83.14
12868;BME280;33517;49.866;8.320;2023-03-05T05:22:09;100688.13;;;5.11;83.23
12868;BME280;33517;49.866;8.320;2023-03-05T05:25:01;100687.88;;;5.14;84.10
12868;BME280;33517;49.866;8.320;2023-03-05T05:27:53;100678.97;;;5.17;83.50
12868;BME280;33517;49.866;8.320;2023-03-05T05:30:46;100679.31;;;5.23;82.56
12868;BME280;33517;49.866;8.320;2023-03-05T05:33:38;100679.03;;;5.26;82.55
12868;BME280;33517;49.866;8.320;2023-03-05T05:36:30;100681.16;;;5.32;82.06
12868;BME280;33517;49.866;8.320;2023-03-05T05:39:22;100678.38;;;5.24;83.08
12868;BME280;33517;49.866;8.320;2023-03-05T05:42:14;100676.03;;;5.10;84.59
12868;BME280;33517;49.866;8.320;2023-03-05T05:45:07;100680.28;;;5.22;83.73
12868;BME280;33517;49.866;8.320;2023-03-05T05:48:01;100677.97;;;5.29;82.99
12868;BME280;33517;49.866;8.320;2023-03-05T05:50:52;100674.66;;;5.27;83.01
12868;BME280;33517;49.866;8.320;2023-03-05T05:53:44;100680.72;;;5.27;82.68
12868;BME280;33517;49.866;8.320;2023-03-05T05:56:36;100677.66;;;5.22;83.52
12868;BME280;33517;49.866;8.320;2023-03-05T05:59:28;100668.31;;;5.20;83.13
12868;BME280;33517;49.866;8.320;2023-03-05T06:02:20;100673.59;;;5.29;82.65
12868;BME280;33517;49.866;8.320;2023-03-05T06:05:13;100676.69;;;5.23;82.58
12868;BME280;33517;49.866;8.320;2023-03-05T06:08:05;100667.53;;;5.29;82.41
12868;BME280;33517;49.866;8.320;2023-03-05T06:10:57;100675.88;;;5.23;83.12
12868;BME280;33517;49.866;8.320;2023-03-05T06:13:49;100671.47;;;5.23;82.82
12868;BME280;33517;49.866;8.320;2023-03-05T06:16:41;100671.13;;;5.17;82.37
12868;BME280;33517;49.866;8.320;2023-03-05T06:19:33;100676.69;;;5.23;82.03
12868;BME280;33517;49.866;8.320;2023-03-05T06:22:26;100671.00;;;5.29;82.06
12868;BME280;33517;49.866;8.320;2023-03-05T06:25:18;100671.69;;;5.31;81.63
12868;BME280;33517;49.866;8.320;2023-03-05T06:28:10;100665.63;;;5.31;81.52
12868;BME280;33517;49.866;8.320;2023-03-05T06:31:03;100671.44;;;5.34;81.35
12868;BME280;33517;49.866;8.320;2023-03-05T06:33:57;100665.16;;;5.37;81.30
12868;BME280;33517;49.866;8.320;2023-03-05T06:36:50;100665.00;;;5.38;81.13
12868;BME280;33517;49.866;8.320;2023-03-05T06:39:44;100673.22;;;5.34;81.06
12868;BME280;33517;49.866;8.320;2023-03-05T06:42:35;100660.59;;;5.18;82.21
12868;BME280;33517;49.866;8.320;2023-03-05T06:45:27;100662.50;;;5.16;82.47
12868;BME280;33517;49.866;8.320;2023-03-05T06:48:19;100661.63;;;5.27;81.81
12868;BME280;33517;49.866;8.320;2023-03-05T06:51:12;100662.81;;;5.23;81.79
12868;BME280;33517;49.866;8.320;2023-03-05T06:54:06;100672.72;;;5.08;82.77
12868;BME280;33517;49.866;8.320;2023-03-05T06:57:00;100675.81;;;5.02;83.32
12868;BME280;33517;49.866;8.320;2023-03-05T06:59:52;100670.13;;;5.08;83.13
12868;BME280;33517;49.866;8.320;2023-03-05T07:02:43;100678.59;;;5.21;82.50
12868;BME280;33517;49.866;8.320;2023-03-05T07:05:37;100674.75;;;5.36;81.73
12868;BME280;33517;49.866;8.320;2023-03-05T07:08:29;100675.66;;;5.46;81.27
12868;BME280;33517;49.866;8.320;2023-03-05T07:11:21;100668.25;;;5.51;80.72
12868;BME280;33517;49.866;8.320;2023-03-05T07:14:15;100664.16;;;5.49;80.81
12868;BME280;33517;49.866;8.320;2023-03-05T07:17:07;100672.78;;;5.49;80.93
12868;BME280;33517;49.866;8.320;2023-03-05T07:19:58;100667.31;;;5.52;80.67
12868;BME280;33517;49.866;8.320;2023-03-05T07:22:50;100667.81;;;5.46;80.62
12868;BME280;33517;49.866;8.320;2023-03-05T07:25:42;100672.00;;;5.38;81.19
12868;BME280;33517;49.866;8.320;2023-03-05T07:28:34;100673.47;;;5.31;81.42
12868;BME280;33517;49.866;8.320;2023-03-05T07:31:28;100667.75;;;5.37;81.20
12868;BME280;33517;49.866;8.320;2023-03-05T07:34:21;100660.75;;;5.37;81.11
12868;BME280;33517;49.866;8.320;2023-03-05T07:37:14;100660.00;;;5.46;81.12
12868;BME280;33517;49.866;8.320;2023-03-05T07:40:06;100656.69;;;5.44;80.58
12868;BME280;33517;49.866;8.320;2023-03-05T07:42:59;100658.78;;;5.50;80.82
12868;BME280;33517;49.866;8.320;2023-03-05T07:45:51;100663.38;;;5.58;80.00
12868;BME280;33517;49.866;8.320;2023-03-05T07:48:44;100656.94;;;5.62;79.60
12868;BME280;33517;49.866;8.320;2023-03-05T07:51:36;100655.03;;;5.64;78.95
12868;BME280;33517;49.866;8.320;2023-03-05T07:54:28;100654.34;;;5.62;79.02
12868;BME280;33517;49.866;8.320;2023-03-05T07:57:20;100661.06;;;5.64;79.30
12868;BME280;33517;49.866;8.320;2023-03-05T08:00:13;100658.22;;;5.68;78.61
12868;BME280;33517;49.866;8.320;2023-03-05T08:03:05;100657.91;;;5.82;78.57
12868;BME280;33517;49.866;8.320;2023-03-05T08:05:59;100658.19;;;6.09;77.07
12868;BME280;33517;49.866;8.320;2023-03-05T08:08:50;100655.25;;;6.23;76.73
12868;BME280;33517;49.866;8.320;2023-03-05T08:11:42;100654.47;;;6.41;76.75
12868;BME280;33517;49.866;8.320;2023-03-05T08:14:34;100657.41;;;6.48;75.81
12868;BME280;33517;49.866;8.320;2023-03-05T08:17:26;100652.91;;;6.60;75.79
12868;BME280;33517;49.866;8.320;2023-03-05T08:20:18;100648.88;;;6.46;72.66
12868;BME280;33517;49.866;8.320;2023-03-05T08:23:11;100644.31;;;6.38;71.68
12868;BME280;33517;49.866;8.320;2023-03-05T08:26:10;100638.75;;;6.72;72.60
12868;BME280;33517;49.866;8.320;2023-03-05T08:29:03;100646.88;;;6.78;71.13
12868;BME280;33517;49.866;8.320;2023-03-05T08:31:55;100637.25;;;6.79;70.94
12868;BME280;33517;49.866;8.320;2023-03-05T08:34:47;100634.13;;;7.04;70.86
12868;BME280;33517;49.866;8.320;2023-03-05T08:37:38;100638.13;;;7.17;68.93
12868;BME280;33517;49.866;8.320;2023-03-05T08:40:32;100631.06;;;7.37;69.19
12868;BME280;33517;49.866;8.320;2023-03-05T08:43:24;100627.50;;;7.28;66.62
12868;BME280;33517;49.866;8.320;2023-03-05T08:46:16;100630.13;;;7.28;66.71
12868;BME280;33517;49.866;8.320;2023-03-05T08:49:08;100633.97;;;7.43;66.44
12868;BME280;33517;49.866;8.320;2023-03-05T08:52:01;100626.94;;;7.54;65.82
12868;BME280;33517;49.866;8.320;2023-03-05T08:54:52;100628.72;;;7.43;63.39
12868;BME280;33517;49.866;8.320;2023-03-05T08:57:46;100619.88;;;7.44;63.04
12868;BME280;33517;49.866;8.320;2023-03-05T09:00:37;100614.38;;;7.57;64.24
12868;BME280;33517;49.866;8.320;2023-03-05T09:03:29;100615.19;;;7.67;62.22
12868;BME280;33517;49.866;8.320;2023-03-05T09:06:21;100617.19;;;7.83;60.91
12868;BME280;33517;49.866;8.320;2023-03-05T09:09:13;100612.59;;;7.94;62.38
12868;BME280;33517;49.866;8.320;2023-03-05T09:12:05;100615.59;;;8.09;60.94
12868;BME280;33517;49.866;8.320;2023-03-05T09:15:00;100615.94;;;7.87;60.90
12868;BME280;33517;49.866;8.320;2023-03-05T09:17:52;100613.91;;;7.81;61.70
12868;BME280;33517;49.866;8.320;2023-03-05T09:20:43;100614.13;;;7.97;60.81
12868;BME280;33517;49.866;8.320;2023-03-05T09:23:35;100610.94;;;8.03;60.49
12868;BME280;33517;49.866;8.320;2023-03-05T09:26:28;100608.47;;;8.01;60.29
12868;BME280;33517;49.866;8.320;2023-03-05T09:29:20;100600.81;;;8.08;59.45
12868;BME280;33517;49.866;8.320;2023-03-05T09:32:13;100596.50;;;8.26;60.92
12868;BME280;33517;49.866;8.320;2023-03-05T09:35:06;100592.78;;;8.28;60.17
12868;BME280;33517;49.866;8.320;2023-03-05T09:37:58;100593.56;;;8.02;59.11
12868;BME280;33517;49.866;8.320;2023-03-05T09:40:55;100593.91;;;8.16;59.22
12868;BME280;33517;49.866;8.320;2023-03-05T09:43:55;100591.38;;;8.34;59.31
12868;BME280;33517;49.866;8.320;2023-03-05T09:46:51;100588.34;;;8.74;58.88
12868;BME280;33517;49.866;8.320;2023-03-05T09:49:50;100589.72;;;8.95;59.41
12868;BME280;33517;49.866;8.320;2023-03-05T09:52:50;100584.69;;;9.02;58.46
12868;BME280;33517;49.866;8.320;2023-03-05T09:55:46;100586.69;;;8.90;59.27
12868;BME280;33517;49.866;8.320;2023-03-05T09:58:42;100586.16;;;8.69;59.02
12868;BME280;33517;49.866;8.320;2023-03-05T10:01:39;100583.19;;;8.64;59.73
12868;BME280;33517;49.866;8.320;2023-03-05T10:04:41;100582.81;;;8.32;59.25
12868;BME280;33517;49.866;8.320;2023-03-05T10:07:39;100580.59;;;8.00;58.54
12868;BME280;33517;49.866;8.320;2023-03-05T10:10:38;100568.47;;;7.99;59.65
12868;BME280;33517;49.866;8.320;2023-03-05T10:13:35;100572.22;;;7.87;59.08
12868;BME280;33517;49.866;8.320;2023-03-05T10:16:47;100566.31;;;7.85;58.81
12868;BME280;33517;49.866;8.320;2023-03-05T10:19:55;100564.75;;;7.92;59.88
12868;BME280;33517;49.866;8.320;2023-03-05T10:23:04;100568.34;;;7.91;59.23
12868;BME280;33517;49.866;8.320;2023-03-05T10:26:20;100557.41;;;8.05;59.06
12868;BME280;33517;49.866;8.320;2023-03-05T10:29:48;100552.19;;;8.23;58.67
12868;BME280;33517;49.866;8.320;2023-03-05T10:32:49;100552.31;;;8.31;59.26
12868;BME280;33517;49.866;8.320;2023-03-05T10:36:09;100547.63;;;8.07;58.43
12868;BME280;33517;49.866;8.320;2023-03-05T10:39:31;100540.38;;;7.92;59.42
12868;BME280;33517;49.866;8.320;2023-03-05T10:42:32;100541.53;;;8.07;59.63
12868;BME280;33517;49.866;8.320;2023-03-05T10:45:28;100540.47;;;8.27;59.04
12868;BME280;33517;49.866;8.320;2023-03-05T10:48:27;100534.56;;;8.25;59.19
12868;BME280;33517;49.866;8.320;2023-03-05T10:51:31;100536.00;;;8.37;57.93
12868;BME280;33517;49.866;8.320;2023-03-05T10:54:27;100541.19;;;8.47;58.15
12868;BME280;33517;49.866;8.320;2023-03-05T10:57:20;100535.56;;;8.42;57.30
12868;BME280;33517;49.866;8.320;2023-03-05T11:00:17;100535.41;;;8.16;57.45
12868;BME280;33517;49.866;8.320;2023-03-05T11:03:10;100533.63;;;8.16;58.52
12868;BME280;33517;49.866;8.320;2023-03-05T11:06:02;100541.06;;;8.21;57.10
12868;BME280;33517;49.866;8.320;2023-03-05T11:08:55;100528.66;;;8.13;58.02
12868;BME280;33517;49.866;8.320;2023-03-05T11:12:04;100528.97;;;8.38;58.13
12868;BME280;33517;49.866;8.320;2023-03-05T11:15:24;100525.16;;;8.67;57.83
12868;BME280;33517;49.866;8.320;2023-03-05T11:18:19;100524.41;;;8.75;56.59
12868;BME280;33517;49.866;8.320;2023-03-05T11:21:20;100519.31;;;8.56;57.51
12868;BME280;33517;49.866;8.320;2023-03-05T11:24:15;100512.88;;;8.23;56.33
12868;BME280;33517;49.866;8.320;2023-03-05T11:27:30;100517.88;;;8.26;58.49
12868;BME280;33517;49.866;8.320;2023-03-05T11:30:25;100518.78;;;8.07;57.93
12868;BME280;33517;49.866;8.320;2023-03-05T11:33:19;100518.09;;;7.78;59.88
12868;BME280;33517;49.866;8.320;2023-03-05T11:36:21;100518.66;;;7.72;59.21
12868;BME280;33517;49.866;8.320;2023-03-05T11:39:16;100506.88;;;7.86;60.16
12868;BME280;33517;49.866;8.320;2023-03-05T11:42:11;100510.63;;;7.46;61.21
12868;BME280;33517;49.866;8.320;2023-03-05T11:45:13;100499.78;;;7.32;61.77
12868;BME280;33517;49.866;8.320;2023-03-05T11:48:09;100493.72;;;7.31;61.31
12868;BME280;33517;49.866;8.320;2023-03-05T11:51:12;100503.50;;;7.29;62.13
12868;BME280;33517;49.866;8.320;2023-03-05T11:54:10;100498.97;;;7.22;63.09
12868;BME280;33517;49.866;8.320;2023-03-05T11:57:05;100501.09;;;6.99;62.70
12868;BME280;33517;49.866;8.320;2023-03-05T11:59:59;100493.66;;;6.95;63.65
12868;BME280;33517;49.866;8.320;2023-03-05T12:03:03;100481.13;;;7.08;64.59
12868;BME280;33517;49.866;8.320;2023-03-05T12:06:02;100471.06;;;7.50;64.45
12868;BME280;33517;49.866;8.320;2023-03-05T12:09:07;100468.69;;;7.83;62.53
12868;BME280;33517;49.866;8.320;2023-03-05T12:12:07;100463.34;;;7.75;61.14
12868;BME280;33517;49.866;8.320;2023-03-05T12:15:17;100452.44;;;8.07;60.78
12868;BME280;33517;49.866;8.320;2023-03-05T12:18:31;100442.78;;;8.07;59.10
12868;BME280;33517;49.866;8.320;2023-03-05T12:21:32;100441.63;;;7.92;60.32
12868;BME280;33517;49.866;8.320;2023-03-05T12:24:35;100435.69;;;7.73;60.18
12868;BME280;33517;49.866;8.320;2023-03-05T12:27:32;100432.19;;;7.82;60.39
12868;BME280;33517;49.866;8.320;2023-03-05T12:30:56;100436.13;;;7.68;60.20
12868;BME280;33517;49.866;8.320;2023-03-05T12:33:50;100414.44;;;7.76;60.55
12868;BME280;33517;49.866;8.320;2023-03-05T12:36:42;100413.84;;;7.82;60.35
12868;BME280;33517;49.866;8.320;2023-03-05T12:39:45;100410.19;;;7.75;60.52
12868;BME280;33517;49.866;8.320;2023-03-05T12:42:50;100400.22;;;7.78;60.05
12868;BME280;33517;49.866;8.320;2023-03-05T12:45:43;100395.75;;;7.88;59.15
12868;BME280;33517;49.866;8.320;2023-03-05T12:48:43;100392.38;;;8.13;58.63
12868;BME280;33517;49.866;8.320;2023-03-05T12:51:37;100376.59;;;8.05;58.21
12868;BME280;33517;49.866;8.320;2023-03-05T12:54:31;100381.59;;;7.99;58.65
12868;BME280;33517;49.866;8.320;2023-03-05T12:57:24;100373.00;;;8.06;57.99
12868;BME280;33517;49.866;8.320;2023-03-05T13:00:23;100374.53;;;8.26;58.36
12868;BME280;33517;49.866;8.320;2023-03-05T13:03:20;100368.13;;;8.29;57.86
12868;BME280;33517;49.866;8.320;2023-03-05T13:06:25;100363.63;;;8.21;57.73
12868;BME280;33517;49.866;8.320;2023-03-05T13:09:23;100359.00;;;8.33;57.00
12868;BME280;33517;49.866;8.320;2023-03-05T13:12:17;100351.97;;;8.33;57.45
12868;BME280;33517;49.866;8.320;2023-03-05T13:15:13;100353.47;;;8.62;56.80
12868;BME280;33517;49.866;8.320;2023-03-05T13:18:17;100356.72;;;8.81;56.19
12868;BME280;33517;49.866;8.320;2023-03-05T13:21:13;100351.53;;;8.89;55.36
12868;BME280;33517;49.866;8.320;2023-03-05T13:24:14;100346.66;;;8.69;55.67
12868;BME280;33517;49.866;8.320;2023-03-05T13:27:23;100337.69;;;8.79;55.23
12868;BME280;33517;49.866;8.320;2023-03-05T13:30:23;100339.06;;;8.66;54.80
12868;BME280;33517;49.866;8.320;2023-03-05T13:33:16;100343.75;;;8.54;53.46
12868;BME280;33517;49.866;8.320;2023-03-05T13:36:14;100333.78;;;8.32;55.37
12868;BME280;33517;49.866;8.320;2023-03-05T13:39:06;100331.06;;;8.42;53.98
12868;BME280;33517;49.866;8.320;2023-03-05T13:42:15;100324.91;;;8.33;55.04
12868;BME280;33517;49.866;8.320;2023-03-05T13:45:25;100327.75;;;8.22;55.56
12868;BME280;33517;49.866;8.320;2023-03-05T13:48:18;100314.28;;;8.34;54.83
12868;BME280;33517;49.866;8.320;2023-03-05T13:51:10;100305.75;;;8.15;55.08
12868;BME280;33517;49.866;8.320;2023-03-05T13:54:03;100303.66;;;8.18;54.64
12868;BME280;33517;49.866;8.320;2023-03-05T13:57:01;100294.44;;;8.32;54.71
12868;BME280;33517;49.866;8.320;2023-03-05T13:59:54;100291.25;;;8.46;54.49
12868;BME280;33517;49.866;8.320;2023-03-05T14:02:48;100296.56;;;8.11;54.18
12868;BME280;33517;49.866;8.320;2023-03-05T14:05:42;100287.84;;;8.10;55.23
12868;BME280;33517;49.866;8.320;2023-03-05T14:08:34;100288.44;;;8.40;54.66
12868;BME280;33517;49.866;8.320;2023-03-05T14:11:26;100290.34;;;8.63;53.90
12868;BME280;33517;49.866;8.320;2023-03-05T14:14:18;100283.19;;;8.40;53.23
12868;BME280;33517;49.866;8.320;2023-03-05T14:17:35;100283.34;;;8.38;54.36
12868;BME280;33517;49.866;8.320;2023-03-05T14:20:29;100276.69;;;8.52;55.14
12868;BME280;33517;49.866;8.320;2023-03-05T14:23:33;100269.81;;;8.51;54.75
12868;BME280;33517;49.866;8.320;2023-03-05T14:26:27;100267.81;;;8.45;54.43
12868;BME280;33517;49.866;8.320;2023-03-05T14:29:22;100262.38;;;8.20;56.03
12868;BME280;33517;49.866;8.320;2023-03-05T14:32:19;100271.09;;;8.03;55.90
12868;BME280;33517;49.866;8.320;2023-03-05T14:35:16;100267.75;;;7.58;56.34
12868;BME280;33517;49.866;8.320;2023-03-05T14:38:19;100260.06;;;7.57;57.68
12868;BME280;33517;49.866;8.320;2023-03-05T14:41:31;100257.81;;;7.62;57.07
12868;BME280;33517;49.866;8.320;2023-03-05T14:44:23;100244.69;;;7.79;57.60
12868;BME280;33517;49.866;8.320;2023-03-05T14:47:16;100240.13;;;7.81;56.60
12868;BME280;33517;49.866;8.320;2023-03-05T14:50:09;100219.00;;;7.83;56.78
12868;BME280;33517;49.866;8.320;2023-03-05T14:53:06;100221.72;;;7.73;56.22
12868;BME280;33517;49.866;8.320;2023-03-05T14:56:00;100219.34;;;7.62;56.05
12868;BME280;33517;49.866;8.320;2023-03-05T14:58:52;100216.59;;;7.28;56.74
12868;BME280;33517;49.866;8.320;2023-03-05T15:01:44;100216.22;;;7.41;56.20
12868;BME280;33517;49.866;8.320;2023-03-05T15:04:36;100207.69;;;7.39;57.14
12868;BME280;33517;49.866;8.320;2023-03-05T15:07:30;100201.84;;;7.63;56.67
12868;BME280;33517;49.866;8.320;2023-03-05T15:10:24;100204.25;;;7.56;55.67
12868;BME280;33517;49.866;8.320;2023-03-05T15:13:17;100202.28;;;7.58;56.39
12868;BME280;33517;49.866;8.320;2023-03-05T15:16:12;100202.59;;;7.55;56.20
12868;BME280;33517;49.866;8.320;2023-03-05T15:19:05;100190.28;;;7.47;56.57
12868;BME280;33517;49.866;8.320;2023-03-05T15:21:57;100184.88;;;7.49;56.92
12868;BME280;33517;49.866;8.320;2023-03-05T15:24:49;100183.59;;;7.53;56.49
12868;BME280;33517;49.866;8.320;2023-03-05T15:27:41;100184.97;;;7.39;56.22
12868;BME280;33517;49.866;8.320;2023-03-05T15:30:36;100173.13;;;7.35;56.10